sensor_id;sensor_type;location;lat;lon;timestamp;P1;durP1;ratioP1;P2;durP2;ratioP2
4698;SDS011;33708;49.466;11.176;2024-03-08T00:01:47;45.20;;;26.37;;
4698;SDS011;33708;49.466;11.176;2024-03-08T00:04:13;41.43;;;23.43;;
4698;SDS011;33708;49.466;11.176;2024-03-08T00:06:40;44.73;;;24.80;;
4698;SDS011;33708;49.466;11.176;2024-03-08T00:09:06;45.33;;;26.40;;
4698;SDS011;33708;49.466;11.176;2024-03-08T00:11:33;46.03;;;26.07;;
4698;SDS011;33708;49.466;11.176;2024-03-08T00:13:59;48.73;;;24.37;;
4698;SDS011;33708;49.466;11.176;2024-03-08T00:16:25;42.37;;;25.30;;
4698;SDS011;33708;49.466;11.176;2024-03-08T00:18:51;37.63;;;21.60;;
4698;SDS011;33708;49.466;11.176;2024-03-08T00:21:16;40.87;;;22.97;;
4698;SDS011;33708;49.466;11.176;2024-03-08T00:23:42;46.03;;;23.83;;
4698;SDS011;33708;49.466;11.176;2024-03-08T00:26:08;40.30;;;23.80;;
4698;SDS011;33708;49.466;11.176;2024-03-08T00:28:34;37.20;;;23.17;;
4698;SDS011;33708;49.466;11.176;2024-03-08T00:30:59;40.27;;;22.80;;
4698;SDS011;33708;49.466;11.176;2024-03-08T00:33:25;43.07;;;25.67;;
4698;SDS011;33708;49.466;11.176;2024-03-08T00:35:52;42.27;;;24.10;;
4698;SDS011;33708;49.466;11.176;2024-03-08T00:38:21;45.97;;;26.00;;
4698;SDS011;33708;49.466;11.176;2024-03-08T00:40:47;48.03;;;26.77;;
4698;SDS011;33708;49.466;11.176;2024-03-08T00:43:12;45.97;;;24.63;;
4698;SDS011;33708;49.466;11.176;2024-03-08T00:45:38;39.67;;;23.97;;
4698;SDS011;33708;49.466;11.176;2024-03-08T00:48:06;46.83;;;25.73;;
4698;SDS011;33708;49.466;11.176;2024-03-08T00:50:32;45.33;;;25.47;;
4698;SDS011;33708;49.466;11.176;2024-03-08T00:52:58;57.47;;;28.57;;
4698;SDS011;33708;49.466;11.176;2024-03-08T00:55:25;54.33;;;28.33;;
4698;SDS011;33708;49.466;11.176;2024-03-08T00:57:50;51.00;;;28.57;;
4698;SDS011;33708;49.466;11.176;2024-03-08T01:00:18;49.90;;;28.07;;
4698;SDS011;33708;49.466;11.176;2024-03-08T01:02:45;58.83;;;30.33;;
4698;SDS011;33708;49.466;11.176;2024-03-08T01:05:11;48.60;;;28.50;;
4698;SDS011;33708;49.466;11.176;2024-03-08T01:07:36;53.83;;;28.50;;
4698;SDS011;33708;49.466;11.176;2024-03-08T01:10:05;100.50;;;41.20;;
4698;SDS011;33708;49.466;11.176;2024-03-08T01:12:37;54.27;;;29.60;;
4698;SDS011;33708;49.466;11.176;2024-03-08T01:15:04;49.27;;;26.90;;
4698;SDS011;33708;49.466;11.176;2024-03-08T01:17:30;42.17;;;23.93;;
4698;SDS011;33708;49.466;11.176;2024-03-08T01:19:56;45.30;;;25.63;;
4698;SDS011;33708;49.466;11.176;2024-03-08T01:22:21;52.60;;;29.20;;
4698;SDS011;33708;49.466;11.176;2024-03-08T01:24:47;48.00;;;26.03;;
4698;SDS011;33708;49.466;11.176;2024-03-08T01:27:13;48.57;;;25.90;;
4698;SDS011;33708;49.466;11.176;2024-03-08T01:29:39;42.63;;;26.57;;
4698;SDS011;33708;49.466;11.176;2024-03-08T01:32:04;51.83;;;27.80;;
4698;SDS011;33708;49.466;11.176;2024-03-08T01:34:31;45.43;;;24.10;;
4698;SDS011;33708;49.466;11.176;2024-03-08T01:36:58;44.20;;;25.77;;
4698;SDS011;33708;49.466;11.176;2024-03-08T01:39:24;43.13;;;25.03;;
4698;SDS011;33708;49.466;11.176;2024-03-08T01:41:50;49.63;;;26.87;;
4698;SDS011;33708;49.466;11.176;2024-03-08T01:44:15;42.03;;;23.30;;
4698;SDS011;33708;49.466;11.176;2024-03-08T01:46:45;41.60;;;24.63;;
4698;SDS011;33708;49.466;11.176;2024-03-08T01:49:12;39.57;;;23.50;;
4698;SDS011;33708;49.466;11.176;2024-03-08T01:51:39;46.13;;;24.30;;
4698;SDS011;33708;49.466;11.176;2024-03-08T01:54:06;45.27;;;25.83;;
4698;SDS011;33708;49.466;11.176;2024-03-08T01:56:35;46.77;;;26.43;;
4698;SDS011;33708;49.466;11.176;2024-03-08T01:59:01;47.40;;;25.80;;
4698;SDS011;33708;49.466;11.176;2024-03-08T02:01:27;43.83;;;25.17;;
4698;SDS011;33708;49.466;11.176;2024-03-08T02:03:54;49.73;;;25.27;;
4698;SDS011;33708;49.466;11.176;2024-03-08T02:06:19;48.77;;;25.23;;
4698;SDS011;33708;49.466;11.176;2024-03-08T02:08:45;52.10;;;25.43;;
4698;SDS011;33708;49.466;11.176;2024-03-08T02:11:11;42.47;;;24.50;;
4698;SDS011;33708;49.466;11.176;2024-03-08T02:13:38;40.20;;;25.03;;
4698;SDS011;33708;49.466;11.176;2024-03-08T02:16:04;41.93;;;24.00;;
4698;SDS011;33708;49.466;11.176;2024-03-08T02:18:32;47.53;;;26.00;;
4698;SDS011;33708;49.466;11.176;2024-03-08T02:20:59;44.57;;;25.50;;
4698;SDS011;33708;49.466;11.176;2024-03-08T02:23:27;46.00;;;25.53;;
4698;SDS011;33708;49.466;11.176;2024-03-08T02:25:54;44.20;;;24.60;;
4698;SDS011;33708;49.466;11.176;2024-03-08T02:28:21;39.93;;;23.63;;
4698;SDS011;33708;49.466;11.176;2024-03-08T02:30:47;42.47;;;25.50;;
4698;SDS011;33708;49.466;11.176;2024-03-08T02:33:13;47.93;;;24.90;;
4698;SDS011;33708;49.466;11.176;2024-03-08T02:35:45;45.93;;;27.03;;
4698;SDS011;33708;49.466;11.176;2024-03-08T02:38:21;43.83;;;23.03;;
4698;SDS011;33708;49.466;11.176;2024-03-08T02:40:49;44.60;;;24.70;;
4698;SDS011;33708;49.466;11.176;2024-03-08T02:43:17;45.43;;;25.47;;
4698;SDS011;33708;49.466;11.176;2024-03-08T02:45:43;44.83;;;24.63;;
4698;SDS011;33708;49.466;11.176;2024-03-08T02:48:10;44.90;;;25.63;;
4698;SDS011;33708;49.466;11.176;2024-03-08T02:50:36;50.87;;;25.60;;
4698;SDS011;33708;49.466;11.176;2024-03-08T02:53:02;43.87;;;24.97;;
4698;SDS011;33708;49.466;11.176;2024-03-08T02:55:28;41.87;;;22.90;;
4698;SDS011;33708;49.466;11.176;2024-03-08T02:57:54;48.37;;;24.80;;
4698;SDS011;33708;49.466;11.176;2024-03-08T03:00:21;39.40;;;24.40;;
4698;SDS011;33708;49.466;11.176;2024-03-08T03:02:49;46.73;;;25.63;;
4698;SDS011;33708;49.466;11.176;2024-03-08T03:05:25;45.47;;;24.90;;
4698;SDS011;33708;49.466;11.176;2024-03-08T03:07:50;54.13;;;29.90;;
4698;SDS011;33708;49.466;11.176;2024-03-08T03:10:16;46.13;;;27.10;;
4698;SDS011;33708;49.466;11.176;2024-03-08T03:12:42;44.80;;;26.03;;
4698;SDS011;33708;49.466;11.176;2024-03-08T03:15:10;45.60;;;27.37;;
4698;SDS011;33708;49.466;11.176;2024-03-08T03:17:36;50.70;;;26.93;;
4698;SDS011;33708;49.466;11.176;2024-03-08T03:20:04;48.07;;;28.73;;
4698;SDS011;33708;49.466;11.176;2024-03-08T03:22:34;48.87;;;26.47;;
4698;SDS011;33708;49.466;11.176;2024-03-08T03:25:01;40.37;;;25.97;;
4698;SDS011;33708;49.466;11.176;2024-03-08T03:27:29;49.50;;;27.43;;
4698;SDS011;33708;49.466;11.176;2024-03-08T03:29:55;42.30;;;24.57;;
4698;SDS011;33708;49.466;11.176;2024-03-08T03:32:22;46.20;;;26.80;;
4698;SDS011;33708;49.466;11.176;2024-03-08T03:34:48;49.37;;;25.63;;
4698;SDS011;33708;49.466;11.176;2024-03-08T03:37:17;46.27;;;25.97;;
4698;SDS011;33708;49.466;11.176;2024-03-08T03:39:46;47.73;;;27.63;;
4698;SDS011;33708;49.466;11.176;2024-03-08T03:42:16;46.33;;;26.53;;
4698;SDS011;33708;49.466;11.176;2024-03-08T03:44:49;48.63;;;25.67;;
4698;SDS011;33708;49.466;11.176;2024-03-08T03:47:14;49.33;;;27.17;;
4698;SDS011;33708;49.466;11.176;2024-03-08T03:49:41;53.13;;;27.90;;
4698;SDS011;33708;49.466;11.176;2024-03-08T03:52:07;50.27;;;26.20;;
4698;SDS011;33708;49.466;11.176;2024-03-08T03:54:33;44.40;;;27.57;;
4698;SDS011;33708;49.466;11.176;2024-03-08T03:56:59;45.00;;;25.73;;
4698;SDS011;33708;49.466;11.176;2024-03-08T03:59:25;49.70;;;26.17;;
4698;SDS011;33708;49.466;11.176;2024-03-08T04:01:52;46.10;;;24.43;;
4698;SDS011;33708;49.466;11.176;2024-03-08T04:04:18;47.83;;;24.93;;
4698;SDS011;33708;49.466;11.176;2024-03-08T04:06:43;49.63;;;27.33;;
4698;SDS011;33708;49.466;11.176;2024-03-08T04:09:10;46.57;;;24.43;;
4698;SDS011;33708;49.466;11.176;2024-03-08T04:11:37;44.30;;;26.00;;
4698;SDS011;33708;49.466;11.176;2024-03-08T04:14:03;43.20;;;25.77;;
4698;SDS011;33708;49.466;11.176;2024-03-08T04:16:30;42.60;;;25.17;;
4698;SDS011;33708;49.466;11.176;2024-03-08T04:18:56;47.93;;;26.20;;
4698;SDS011;33708;49.466;11.176;2024-03-08T04:21:22;46.37;;;26.33;;
4698;SDS011;33708;49.466;11.176;2024-03-08T04:23:48;49.47;;;27.23;;
4698;SDS011;33708;49.466;11.176;2024-03-08T04:26:13;44.77;;;26.90;;
4698;SDS011;33708;49.466;11.176;2024-03-08T04:28:39;48.50;;;25.33;;
4698;SDS011;33708;49.466;11.176;2024-03-08T04:31:04;50.83;;;28.20;;
4698;SDS011;33708;49.466;11.176;2024-03-08T04:33:31;50.77;;;27.10;;
4698;SDS011;33708;49.466;11.176;2024-03-08T04:35:57;45.10;;;26.87;;
4698;SDS011;33708;49.466;11.176;2024-03-08T04:38:23;51.10;;;26.10;;
4698;SDS011;33708;49.466;11.176;2024-03-08T04:40:49;49.67;;;27.37;;
4698;SDS011;33708;49.466;11.176;2024-03-08T04:43:15;48.87;;;27.07;;
4698;SDS011;33708;49.466;11.176;2024-03-08T04:45:43;46.37;;;27.90;;
4698;SDS011;33708;49.466;11.176;2024-03-08T04:48:09;49.87;;;26.87;;
4698;SDS011;33708;49.466;11.176;2024-03-08T04:50:36;45.97;;;25.50;;
4698;SDS011;33708;49.466;11.176;2024-03-08T04:53:03;52.30;;;28.37;;
4698;SDS011;33708;49.466;11.176;2024-03-08T04:55:29;49.60;;;26.30;;
4698;SDS011;33708;49.466;11.176;2024-03-08T04:57:55;51.10;;;28.97;;
4698;SDS011;33708;49.466;11.176;2024-03-08T05:00:20;51.83;;;27.40;;
4698;SDS011;33708;49.466;11.176;2024-03-08T05:02:46;43.17;;;25.70;;
4698;SDS011;33708;49.466;11.176;2024-03-08T05:05:11;47.97;;;26.17;;
4698;SDS011;33708;49.466;11.176;2024-03-08T05:07:38;58.07;;;26.30;;
4698;SDS011;33708;49.466;11.176;2024-03-08T05:10:04;50.17;;;27.47;;
4698;SDS011;33708;49.466;11.176;2024-03-08T05:12:31;54.67;;;29.93;;
4698;SDS011;33708;49.466;11.176;2024-03-08T05:14:57;49.17;;;27.93;;
4698;SDS011;33708;49.466;11.176;2024-03-08T05:17:23;52.33;;;29.80;;
4698;SDS011;33708;49.466;11.176;2024-03-08T05:19:49;55.57;;;29.57;;
4698;SDS011;33708;49.466;11.176;2024-03-08T05:22:16;52.03;;;29.10;;
4698;SDS011;33708;49.466;11.176;2024-03-08T05:24:42;52.73;;;29.00;;
4698;SDS011;33708;49.466;11.176;2024-03-08T05:27:08;48.73;;;30.50;;
4698;SDS011;33708;49.466;11.176;2024-03-08T05:29:34;50.83;;;28.33;;
4698;SDS011;33708;49.466;11.176;2024-03-08T05:31:59;53.50;;;30.57;;
4698;SDS011;33708;49.466;11.176;2024-03-08T05:34:25;51.47;;;29.20;;
4698;SDS011;33708;49.466;11.176;2024-03-08T05:36:53;44.77;;;27.17;;
4698;SDS011;33708;49.466;11.176;2024-03-08T05:39:19;55.80;;;30.70;;
4698;SDS011;33708;49.466;11.176;2024-03-08T05:41:45;50.80;;;27.30;;
4698;SDS011;33708;49.466;11.176;2024-03-08T05:44:11;53.37;;;27.67;;
4698;SDS011;33708;49.466;11.176;2024-03-08T05:46:38;50.10;;;28.83;;
4698;SDS011;33708;49.466;11.176;2024-03-08T05:49:04;52.83;;;31.33;;
4698;SDS011;33708;49.466;11.176;2024-03-08T05:51:33;51.73;;;29.20;;
4698;SDS011;33708;49.466;11.176;2024-03-08T05:54:03;51.00;;;29.53;;
4698;SDS011;33708;49.466;11.176;2024-03-08T05:56:30;46.10;;;28.43;;
4698;SDS011;33708;49.466;11.176;2024-03-08T05:58:59;51.97;;;29.27;;
4698;SDS011;33708;49.466;11.176;2024-03-08T06:01:25;53.60;;;29.40;;
4698;SDS011;33708;49.466;11.176;2024-03-08T06:03:55;54.47;;;30.77;;
4698;SDS011;33708;49.466;11.176;2024-03-08T06:06:25;52.77;;;29.03;;
4698;SDS011;33708;49.466;11.176;2024-03-08T06:08:51;52.47;;;28.80;;
4698;SDS011;33708;49.466;11.176;2024-03-08T06:11:18;50.77;;;30.77;;
4698;SDS011;33708;49.466;11.176;2024-03-08T06:13:45;47.83;;;28.50;;
4698;SDS011;33708;49.466;11.176;2024-03-08T06:16:11;57.07;;;31.33;;
4698;SDS011;33708;49.466;11.176;2024-03-08T06:18:37;50.50;;;30.47;;
4698;SDS011;33708;49.466;11.176;2024-03-08T06:21:04;54.60;;;30.53;;
4698;SDS011;33708;49.466;11.176;2024-03-08T06:23:34;49.70;;;28.80;;
4698;SDS011;33708;49.466;11.176;2024-03-08T06:26:03;49.70;;;29.47;;
4698;SDS011;33708;49.466;11.176;2024-03-08T06:28:32;50.97;;;29.37;;
4698;SDS011;33708;49.466;11.176;2024-03-08T06:31:01;47.60;;;27.50;;
4698;SDS011;33708;49.466;11.176;2024-03-08T06:33:27;49.97;;;30.33;;
4698;SDS011;33708;49.466;11.176;2024-03-08T06:35:54;50.97;;;28.93;;
4698;SDS011;33708;49.466;11.176;2024-03-08T06:38:22;48.67;;;30.47;;
4698;SDS011;33708;49.466;11.176;2024-03-08T06:40:48;45.10;;;28.80;;
4698;SDS011;33708;49.466;11.176;2024-03-08T06:43:14;48.03;;;28.93;;
4698;SDS011;33708;49.466;11.176;2024-03-08T06:45:43;48.60;;;30.10;;
4698;SDS011;33708;49.466;11.176;2024-03-08T06:48:15;54.13;;;28.87;;
4698;SDS011;33708;49.466;11.176;2024-03-08T06:50:44;59.23;;;30.30;;
4698;SDS011;33708;49.466;11.176;2024-03-08T06:53:11;53.50;;;30.40;;
4698;SDS011;33708;49.466;11.176;2024-03-08T06:55:37;46.70;;;28.97;;
4698;SDS011;33708;49.466;11.176;2024-03-08T06:58:02;44.27;;;29.20;;
4698;SDS011;33708;49.466;11.176;2024-03-08T07:00:28;46.30;;;30.03;;
4698;SDS011;33708;49.466;11.176;2024-03-08T07:02:55;49.30;;;31.93;;
4698;SDS011;33708;49.466;11.176;2024-03-08T07:05:27;42.60;;;27.83;;
4698;SDS011;33708;49.466;11.176;2024-03-08T07:07:53;46.70;;;29.30;;
4698;SDS011;33708;49.466;11.176;2024-03-08T07:10:20;39.37;;;26.80;;
4698;SDS011;33708;49.466;11.176;2024-03-08T07:12:48;45.67;;;29.00;;
4698;SDS011;33708;49.466;11.176;2024-03-08T07:15:14;45.83;;;29.00;;
4698;SDS011;33708;49.466;11.176;2024-03-08T07:17:41;42.80;;;28.63;;
4698;SDS011;33708;49.466;11.176;2024-03-08T07:20:09;40.63;;;27.13;;
4698;SDS011;33708;49.466;11.176;2024-03-08T07:22:37;42.80;;;29.53;;
4698;SDS011;33708;49.466;11.176;2024-03-08T07:25:06;40.53;;;29.23;;
4698;SDS011;33708;49.466;11.176;2024-03-08T07:27:48;42.00;;;27.97;;
4698;SDS011;33708;49.466;11.176;2024-03-08T07:30:18;39.80;;;28.40;;
4698;SDS011;33708;49.466;11.176;2024-03-08T07:33:03;43.40;;;26.83;;
4698;SDS011;33708;49.466;11.176;2024-03-08T07:35:29;40.50;;;28.07;;
4698;SDS011;33708;49.466;11.176;2024-03-08T07:37:57;42.97;;;29.10;;
4698;SDS011;33708;49.466;11.176;2024-03-08T07:40:24;42.77;;;27.80;;
4698;SDS011;33708;49.466;11.176;2024-03-08T07:42:50;39.27;;;27.30;;
4698;SDS011;33708;49.466;11.176;2024-03-08T07:45:16;43.27;;;27.70;;
4698;SDS011;33708;49.466;11.176;2024-03-08T07:47:42;37.20;;;26.70;;
4698;SDS011;33708;49.466;11.176;2024-03-08T07:50:08;42.27;;;28.87;;
4698;SDS011;33708;49.466;11.176;2024-03-08T07:52:34;41.73;;;28.10;;
4698;SDS011;33708;49.466;11.176;2024-03-08T07:55:01;39.57;;;25.50;;
4698;SDS011;33708;49.466;11.176;2024-03-08T07:57:28;36.73;;;26.40;;
4698;SDS011;33708;49.466;11.176;2024-03-08T07:59:54;42.83;;;28.33;;
4698;SDS011;33708;49.466;11.176;2024-03-08T08:02:20;44.47;;;27.50;;
4698;SDS011;33708;49.466;11.176;2024-03-08T08:04:46;36.63;;;25.93;;
4698;SDS011;33708;49.466;11.176;2024-03-08T08:07:11;36.63;;;25.63;;
4698;SDS011;33708;49.466;11.176;2024-03-08T08:09:37;37.60;;;25.50;;
4698;SDS011;33708;49.466;11.176;2024-03-08T08:12:03;35.60;;;25.40;;
4698;SDS011;33708;49.466;11.176;2024-03-08T08:14:29;35.77;;;25.70;;
4698;SDS011;33708;49.466;11.176;2024-03-08T08:16:55;32.77;;;25.10;;
4698;SDS011;33708;49.466;11.176;2024-03-08T08:19:22;45.63;;;26.40;;
4698;SDS011;33708;49.466;11.176;2024-03-08T08:21:54;35.93;;;24.07;;
4698;SDS011;33708;49.466;11.176;2024-03-08T08:24:19;39.60;;;23.50;;
4698;SDS011;33708;49.466;11.176;2024-03-08T08:26:46;41.40;;;27.13;;
4698;SDS011;33708;49.466;11.176;2024-03-08T08:29:15;36.00;;;26.07;;
4698;SDS011;33708;49.466;11.176;2024-03-08T08:31:41;32.87;;;23.63;;
4698;SDS011;33708;49.466;11.176;2024-03-08T08:34:08;30.20;;;22.73;;
4698;SDS011;33708;49.466;11.176;2024-03-08T08:36:34;33.47;;;23.00;;
4698;SDS011;33708;49.466;11.176;2024-03-08T08:39:00;30.33;;;22.70;;
4698;SDS011;33708;49.466;11.176;2024-03-08T08:41:28;32.43;;;22.53;;
4698;SDS011;33708;49.466;11.176;2024-03-08T08:43:54;30.23;;;23.10;;
4698;SDS011;33708;49.466;11.176;2024-03-08T08:46:19;33.50;;;22.13;;
4698;SDS011;33708;49.466;11.176;2024-03-08T08:48:46;31.57;;;24.37;;
4698;SDS011;33708;49.466;11.176;2024-03-08T08:51:12;28.07;;;20.83;;
4698;SDS011;33708;49.466;11.176;2024-03-08T08:53:41;32.30;;;23.63;;
4698;SDS011;33708;49.466;11.176;2024-03-08T08:56:12;28.20;;;21.80;;
4698;SDS011;33708;49.466;11.176;2024-03-08T08:58:39;27.77;;;19.47;;
4698;SDS011;33708;49.466;11.176;2024-03-08T09:01:06;24.20;;;19.87;;
4698;SDS011;33708;49.466;11.176;2024-03-08T09:03:32;33.27;;;20.80;;
4698;SDS011;33708;49.466;11.176;2024-03-08T09:05:59;26.07;;;19.97;;
4698;SDS011;33708;49.466;11.176;2024-03-08T09:08:25;25.90;;;19.67;;
4698;SDS011;33708;49.466;11.176;2024-03-08T09:10:51;25.03;;;19.13;;
4698;SDS011;33708;49.466;11.176;2024-03-08T09:13:16;27.60;;;18.53;;
4698;SDS011;33708;49.466;11.176;2024-03-08T09:15:43;22.87;;;18.90;;
4698;SDS011;33708;49.466;11.176;2024-03-08T09:18:09;26.57;;;19.50;;
4698;SDS011;33708;49.466;11.176;2024-03-08T09:20:35;28.80;;;21.37;;
4698;SDS011;33708;49.466;11.176;2024-03-08T09:23:01;25.20;;;19.23;;
4698;SDS011;33708;49.466;11.176;2024-03-08T09:25:29;27.30;;;20.20;;
4698;SDS011;33708;49.466;11.176;2024-03-08T09:27:54;29.43;;;19.93;;
4698;SDS011;33708;49.466;11.176;2024-03-08T09:30:20;24.63;;;18.70;;
4698;SDS011;33708;49.466;11.176;2024-03-08T09:32:46;28.30;;;19.67;;
4698;SDS011;33708;49.466;11.176;2024-03-08T09:35:12;27.07;;;19.83;;
4698;SDS011;33708;49.466;11.176;2024-03-08T09:37:38;27.47;;;20.60;;
4698;SDS011;33708;49.466;11.176;2024-03-08T09:40:04;32.63;;;20.17;;
4698;SDS011;33708;49.466;11.176;2024-03-08T09:42:34;26.83;;;19.27;;
4698;SDS011;33708;49.466;11.176;2024-03-08T09:45:03;28.00;;;20.00;;
4698;SDS011;33708;49.466;11.176;2024-03-08T09:47:42;28.87;;;19.77;;
4698;SDS011;33708;49.466;11.176;2024-03-08T09:50:09;28.17;;;17.70;;
4698;SDS011;33708;49.466;11.176;2024-03-08T09:52:37;30.37;;;19.17;;
4698;SDS011;33708;49.466;11.176;2024-03-08T09:55:07;27.37;;;17.80;;
4698;SDS011;33708;49.466;11.176;2024-03-08T09:57:39;27.40;;;17.50;;
4698;SDS011;33708;49.466;11.176;2024-03-08T10:00:05;27.40;;;18.67;;
4698;SDS011;33708;49.466;11.176;2024-03-08T10:02:49;27.77;;;19.17;;
4698;SDS011;33708;49.466;11.176;2024-03-08T10:05:17;31.33;;;18.00;;
4698;SDS011;33708;49.466;11.176;2024-03-08T10:07:43;29.90;;;16.60;;
4698;SDS011;33708;49.466;11.176;2024-03-08T10:10:09;26.13;;;17.90;;
4698;SDS011;33708;49.466;11.176;2024-03-08T10:12:37;25.60;;;17.37;;
4698;SDS011;33708;49.466;11.176;2024-03-08T10:15:05;30.03;;;18.87;;
4698;SDS011;33708;49.466;11.176;2024-03-08T10:17:36;24.37;;;15.17;;
4698;SDS011;33708;49.466;11.176;2024-03-08T10:20:02;29.20;;;17.23;;
4698;SDS011;33708;49.466;11.176;2024-03-08T10:22:29;29.10;;;17.80;;
4698;SDS011;33708;49.466;11.176;2024-03-08T10:24:56;20.63;;;13.23;;
4698;SDS011;33708;49.466;11.176;2024-03-08T10:27:22;30.87;;;17.80;;
4698;SDS011;33708;49.466;11.176;2024-03-08T10:29:48;22.70;;;15.10;;
4698;SDS011;33708;49.466;11.176;2024-03-08T10:32:15;29.00;;;15.77;;
4698;SDS011;33708;49.466;11.176;2024-03-08T10:34:41;20.77;;;14.40;;
4698;SDS011;33708;49.466;11.176;2024-03-08T10:37:07;23.47;;;15.50;;
4698;SDS011;33708;49.466;11.176;2024-03-08T10:39:37;26.50;;;15.10;;
4698;SDS011;33708;49.466;11.176;2024-03-08T10:42:08;24.33;;;14.47;;
4698;SDS011;33708;49.466;11.176;2024-03-08T10:44:42;23.73;;;14.47;;
4698;SDS011;33708;49.466;11.176;2024-03-08T10:47:19;24.90;;;14.37;;
4698;SDS011;33708;49.466;11.176;2024-03-08T10:49:54;23.23;;;13.93;;
4698;SDS011;33708;49.466;11.176;2024-03-08T10:52:28;21.07;;;13.20;;
4698;SDS011;33708;49.466;11.176;2024-03-08T10:54:54;23.27;;;13.63;;
4698;SDS011;33708;49.466;11.176;2024-03-08T10:57:22;20.50;;;13.83;;
4698;SDS011;33708;49.466;11.176;2024-03-08T10:59:49;24.70;;;14.70;;
4698;SDS011;33708;49.466;11.176;2024-03-08T11:02:16;21.43;;;11.77;;
4698;SDS011;33708;49.466;11.176;2024-03-08T11:04:47;22.77;;;13.60;;
4698;SDS011;33708;49.466;11.176;2024-03-08T11:07:14;22.13;;;12.83;;
4698;SDS011;33708;49.466;11.176;2024-03-08T11:09:42;21.90;;;14.00;;
4698;SDS011;33708;49.466;11.176;2024-03-08T11:12:29;22.00;;;13.20;;
4698;SDS011;33708;49.466;11.176;2024-03-08T11:15:11;19.43;;;13.00;;
4698;SDS011;33708;49.466;11.176;2024-03-08T11:20:08;20.00;;;12.40;;
4698;SDS011;33708;49.466;11.176;2024-03-08T11:22:40;21.50;;;11.93;;
4698;SDS011;33708;49.466;11.176;2024-03-08T11:25:31;20.90;;;13.33;;
4698;SDS011;33708;49.466;11.176;2024-03-08T11:28:18;17.10;;;11.27;;
4698;SDS011;33708;49.466;11.176;2024-03-08T11:30:45;19.23;;;11.97;;
4698;SDS011;33708;49.466;11.176;2024-03-08T11:33:27;22.90;;;12.93;;
4698;SDS011;33708;49.466;11.176;2024-03-08T11:36:11;20.03;;;13.10;;
4698;SDS011;33708;49.466;11.176;2024-03-08T11:38:44;19.00;;;11.40;;
4698;SDS011;33708;49.466;11.176;2024-03-08T11:41:09;18.83;;;12.13;;
4698;SDS011;33708;49.466;11.176;2024-03-08T11:43:39;17.83;;;11.70;;
4698;SDS011;33708;49.466;11.176;2024-03-08T11:46:10;18.97;;;12.23;;
4698;SDS011;33708;49.466;11.176;2024-03-08T11:48:37;25.60;;;11.20;;
4698;SDS011;33708;49.466;11.176;2024-03-08T11:51:06;23.23;;;11.73;;
4698;SDS011;33708;49.466;11.176;2024-03-08T11:53:33;16.90;;;11.07;;
4698;SDS011;33708;49.466;11.176;2024-03-08T11:56:08;19.57;;;11.40;;
4698;SDS011;33708;49.466;11.176;2024-03-08T11:58:39;20.93;;;11.37;;
4698;SDS011;33708;49.466;11.176;2024-03-08T12:01:06;16.03;;;9.77;;
4698;SDS011;33708;49.466;11.176;2024-03-08T12:03:34;15.67;;;8.80;;
4698;SDS011;33708;49.466;11.176;2024-03-08T12:06:00;15.77;;;9.73;;
4698;SDS011;33708;49.466;11.176;2024-03-08T12:08:27;18.23;;;11.50;;
4698;SDS011;33708;49.466;11.176;2024-03-08T12:10:55;20.40;;;13.10;;
4698;SDS011;33708;49.466;11.176;2024-03-08T12:13:28;22.87;;;11.50;;
4698;SDS011;33708;49.466;11.176;2024-03-08T12:15:59;19.40;;;10.90;;
4698;SDS011;33708;49.466;11.176;2024-03-08T12:18:26;19.13;;;12.70;;
4698;SDS011;33708;49.466;11.176;2024-03-08T12:21:03;19.10;;;11.70;;
4698;SDS011;33708;49.466;11.176;2024-03-08T12:23:36;17.90;;;11.73;;
4698;SDS011;33708;49.466;11.176;2024-03-08T12:26:17;18.63;;;12.43;;
4698;SDS011;33708;49.466;11.176;2024-03-08T12:28:48;22.50;;;13.50;;
4698;SDS011;33708;49.466;11.176;2024-03-08T12:31:14;25.00;;;14.27;;
4698;SDS011;33708;49.466;11.176;2024-03-08T12:36:18;18.63;;;12.80;;
4698;SDS011;33708;49.466;11.176;2024-03-08T12:38:46;20.77;;;13.90;;
4698;SDS011;33708;49.466;11.176;2024-03-08T12:41:13;21.00;;;13.73;;
4698;SDS011;33708;49.466;11.176;2024-03-08T12:43:39;25.23;;;13.30;;
4698;SDS011;33708;49.466;11.176;2024-03-08T12:46:05;20.30;;;13.87;;
4698;SDS011;33708;49.466;11.176;2024-03-08T12:48:37;19.10;;;12.80;;
4698;SDS011;33708;49.466;11.176;2024-03-08T12:51:05;19.60;;;13.23;;
4698;SDS011;33708;49.466;11.176;2024-03-08T12:53:32;23.37;;;13.40;;
4698;SDS011;33708;49.466;11.176;2024-03-08T12:55:58;21.70;;;14.00;;
4698;SDS011;33708;49.466;11.176;2024-03-08T12:58:24;21.60;;;14.73;;
4698;SDS011;33708;49.466;11.176;2024-03-08T13:00:51;23.43;;;15.60;;
4698;SDS011;33708;49.466;11.176;2024-03-08T13:03:17;26.23;;;15.17;;
4698;SDS011;33708;49.466;11.176;2024-03-08T13:05:42;25.50;;;15.43;;
4698;SDS011;33708;49.466;11.176;2024-03-08T13:08:08;23.47;;;14.70;;
4698;SDS011;33708;49.466;11.176;2024-03-08T13:10:41;24.13;;;15.90;;
4698;SDS011;33708;49.466;11.176;2024-03-08T13:13:08;21.13;;;14.40;;
4698;SDS011;33708;49.466;11.176;2024-03-08T13:15:40;21.07;;;13.97;;
4698;SDS011;33708;49.466;11.176;2024-03-08T13:18:05;24.00;;;16.30;;
4698;SDS011;33708;49.466;11.176;2024-03-08T13:20:33;20.60;;;13.77;;
4698;SDS011;33708;49.466;11.176;2024-03-08T13:23:02;23.00;;;15.07;;
4698;SDS011;33708;49.466;11.176;2024-03-08T13:25:29;21.20;;;14.83;;
4698;SDS011;33708;49.466;11.176;2024-03-08T13:27:55;21.07;;;13.97;;
4698;SDS011;33708;49.466;11.176;2024-03-08T13:30:24;22.10;;;14.50;;
4698;SDS011;33708;49.466;11.176;2024-03-08T13:32:52;23.13;;;13.43;;
4698;SDS011;33708;49.466;11.176;2024-03-08T13:35:18;20.00;;;13.67;;
4698;SDS011;33708;49.466;11.176;2024-03-08T13:37:49;18.33;;;13.00;;
4698;SDS011;33708;49.466;11.176;2024-03-08T13:40:16;20.07;;;12.87;;
4698;SDS011;33708;49.466;11.176;2024-03-08T13:42:44;21.70;;;13.33;;
4698;SDS011;33708;49.466;11.176;2024-03-08T13:45:14;19.93;;;12.70;;
4698;SDS011;33708;49.466;11.176;2024-03-08T13:47:42;23.80;;;14.40;;
4698;SDS011;33708;49.466;11.176;2024-03-08T13:50:09;18.80;;;12.70;;
4698;SDS011;33708;49.466;11.176;2024-03-08T13:52:40;18.43;;;12.83;;
4698;SDS011;33708;49.466;11.176;2024-03-08T13:55:09;19.90;;;13.00;;
4698;SDS011;33708;49.466;11.176;2024-03-08T13:57:35;22.40;;;14.30;;
4698;SDS011;33708;49.466;11.176;2024-03-08T14:00:01;19.37;;;13.00;;
4698;SDS011;33708;49.466;11.176;2024-03-08T14:02:27;18.53;;;12.60;;
4698;SDS011;33708;49.466;11.176;2024-03-08T14:04:56;22.07;;;13.00;;
4698;SDS011;33708;49.466;11.176;2024-03-08T14:07:22;21.50;;;13.00;;
4698;SDS011;33708;49.466;11.176;2024-03-08T14:09:48;19.97;;;13.50;;
4698;SDS011;33708;49.466;11.176;2024-03-08T14:12:18;19.27;;;12.63;;
4698;SDS011;33708;49.466;11.176;2024-03-08T14:14:44;19.10;;;13.07;;
4698;SDS011;33708;49.466;11.176;2024-03-08T14:17:09;18.80;;;12.37;;
4698;SDS011;33708;49.466;11.176;2024-03-08T14:19:36;17.50;;;12.10;;
4698;SDS011;33708;49.466;11.176;2024-03-08T14:22:04;19.00;;;13.40;;
4698;SDS011;33708;49.466;11.176;2024-03-08T14:24:30;18.87;;;12.77;;
4698;SDS011;33708;49.466;11.176;2024-03-08T14:26:56;18.47;;;13.10;;
4698;SDS011;33708;49.466;11.176;2024-03-08T14:29:24;23.23;;;12.43;;